Aretxabaleta, Spain
Current Conditions -  °F | °C
As of 3:30 PM on Sunday 23 Nov 2014 (Local Time) from LEVT Reporting Station
Scattered Clouds Scattered Clouds  
Wind Chill: 66°   Ceiling: Unl
Heat Index: 66°   Visibility: 6mi
Dew Point: 50°   Wind: 10mph
Humidity: 56%   Direction: 140°SE
Pressure: 29.91"   Gusts: NA
Location:  43.03°N, 2.5°W
Report Text: LEVT 231430Z 14009KT 110V170 9999 SCT065 19/10 Q1013
Loading
Personal Weather Stations






























Interactive Weather Map New forecast layout! Learn more

10-Day Weather Forecast

Advertisements
Track Severe Weather on mobile